Time;durP1;ratioP1;P1;durP2;ratioP2;P2;SDS_P1;SDS_P2;PMS_P1;PMS_P2;Temp;Humidity;BMP_temperature;BMP_pressure;BME280_temperature;BME280_humidity;BME280_pressure;Samples;Min_cycle;Max_cycle;Signal;HPM_P1;HPM_P2
2022/07/19 00:00:46;;;;;;;26.02;15.55;;;;;;;22.19;64.76;93216.50;4784375;30;20351;-75
2022/07/19 00:03:13;;;;;;;27.80;15.77;;;;;;;22.20;64.93;93210.03;4785861;30;20046;-75
2022/07/19 00:05:39;;;;;;;29.83;16.33;;;;;;;22.24;64.76;93216.28;4785989;30;20403;-75
2022/07/19 00:08:05;;;;;;;35.95;15.48;;;;;;;22.31;64.28;93213.78;4785166;30;20039;-75
2022/07/19 00:10:30;;;;;;;30.20;16.58;;;;;;;22.37;64.10;93219.66;4767821;29;20549;-75
2022/07/19 00:12:56;;;;;;;28.15;15.68;;;;;;;22.40;63.71;93225.09;4762683;30;20036;-75
2022/07/19 00:15:24;;;;;;;29.00;16.63;;;;;;;22.43;63.65;93221.75;4767679;30;20054;-75
2022/07/19 00:17:50;;;;;;;28.15;17.27;;;;;;;22.46;63.37;93225.63;4752252;30;20475;-75
2022/07/19 00:20:19;;;;;;;26.50;16.73;;;;;;;22.50;63.04;93225.72;4739880;30;20185;-75
2022/07/19 00:22:45;;;;;;;29.95;17.50;;;;;;;22.53;62.86;93230.34;4769370;30;20107;-75
2022/07/19 00:25:11;;;;;;;36.10;17.90;;;;;;;22.53;62.87;93223.13;4785607;30;20047;-75
2022/07/19 00:27:37;;;;;;;28.30;17.38;;;;;;;22.54;62.87;93227.34;4765813;30;20335;-75
2022/07/19 00:30:05;;;;;;;42.17;17.50;;;;;;;22.57;62.97;93233.91;4778661;30;20047;-74
2022/07/19 00:32:31;;;;;;;33.38;16.58;;;;;;;22.57;63.36;93229.34;4767514;30;20066;-75
2022/07/19 00:34:56;;;;;;;32.35;18.17;;;;;;;22.56;62.93;93222.47;4769424;30;20035;-75
2022/07/19 00:37:22;;;;;;;27.42;16.20;;;;;;;22.55;62.93;93225.47;4754546;30;20051;-75
2022/07/19 00:39:48;;;;;;;28.67;16.92;;;;;;;22.56;63.23;93229.66;4769334;30;20078;-75
2022/07/19 00:42:14;;;;;;;30.17;18.63;;;;;;;22.50;63.06;93226.50;4783950;30;20113;-74
2022/07/19 00:44:40;;;;;;;33.20;17.75;;;;;;;22.45;63.34;93227.53;4783720;30;20525;-75
2022/07/19 00:47:07;;;;;;;34.90;18.17;;;;;;;22.41;63.29;93228.53;4769370;30;20043;-75
2022/07/19 00:49:33;;;;;;;33.97;18.02;;;;;;;22.38;63.70;93229.22;4782505;30;20027;-74
2022/07/19 00:52:01;;;;;;;29.58;16.85;;;;;;;22.33;63.86;93229.47;4783793;30;20123;-75
2022/07/19 00:54:28;;;;;;;31.60;17.73;;;;;;;22.31;63.96;93234.38;4769387;30;20054;-75
2022/07/19 00:56:54;;;;;;;31.48;18.17;;;;;;;22.28;64.04;93232.38;4768956;30;20047;-75
2022/07/19 00:59:21;;;;;;;30.80;16.83;;;;;;;22.17;64.21;93218.75;4785674;30;20476;-75
2022/07/19 01:01:46;;;;;;;32.45;17.65;;;;;;;22.21;64.73;93228.41;4752305;30;20052;-75
2022/07/19 01:04:12;;;;;;;40.72;18.35;;;;;;;22.18;64.85;93229.06;4736379;30;20510;-75
2022/07/19 01:06:38;;;;;;;31.92;18.60;;;;;;;22.15;65.04;93235.06;4767079;30;20058;-74
2022/07/19 01:09:04;;;;;;;32.58;17.58;;;;;;;22.10;65.22;93227.31;4750617;30;20478;-75
2022/07/19 01:11:30;;;;;;;36.67;18.02;;;;;;;22.08;65.20;93240.22;4751120;30;20128;-75
2022/07/19 01:13:55;;;;;;;28.55;17.17;;;;;;;22.04;65.31;93234.00;4768638;30;20122;-75
2022/07/19 01:16:21;;;;;;;30.27;17.23;;;;;;;22.02;65.41;93239.69;4750970;30;20414;-74
2022/07/19 01:18:46;;;;;;;34.10;18.80;;;;;;;22.03;65.64;93235.13;4769544;30;20093;-75
2022/07/19 01:21:18;;;;;;;36.53;16.42;;;;;;;21.99;65.83;93231.59;4770873;30;20054;-75
2022/07/19 01:23:44;;;;;;;33.55;18.00;;;;;;;21.97;65.93;93239.13;4768176;30;20387;-74
2022/07/19 01:26:10;;;;;;;28.25;17.10;;;;;;;21.92;66.06;93226.84;4772541;30;20122;-74
2022/07/19 01:28:35;;;;;;;37.95;18.85;;;;;;;21.91;65.99;93237.81;4771558;30;20126;-74
2022/07/19 01:31:01;;;;;;;29.38;18.23;;;;;;;21.88;65.75;93236.63;4782876;30;20510;-74
2022/07/19 01:33:27;;;;;;;33.67;18.55;;;;;;;21.86;66.02;93238.06;4770611;30;20116;-75
2022/07/19 01:35:52;;;;;;;29.75;18.27;;;;;;;21.84;65.97;93238.41;4786254;30;20047;-75
2022/07/19 01:38:18;;;;;;;42.47;17.75;;;;;;;21.81;65.71;93231.09;4781388;30;20046;-75
2022/07/19 01:40:43;;;;;;;33.90;17.92;;;;;;;21.79;65.68;93238.63;4763642;30;20426;-74
2022/07/19 01:43:09;;;;;;;33.05;17.48;;;;;;;21.75;65.69;93227.09;4772274;30;20122;-74
2022/07/19 01:45:34;;;;;;;28.55;16.80;;;;;;;21.71;66.25;93231.56;4770116;30;20051;-74
2022/07/19 01:48:00;;;;;;;29.75;17.95;;;;;;;21.68;65.98;93227.69;4770412;30;20062;-74
2022/07/19 01:50:26;;;;;;;30.52;17.38;;;;;;;21.64;66.41;93237.47;4770430;30;20052;-74
2022/07/19 01:52:51;;;;;;;29.42;16.80;;;;;;;21.63;66.11;93233.25;4755989;30;20082;-75
2022/07/19 01:55:19;;;;;;;32.65;17.27;;;;;;;21.60;65.89;93231.28;4770491;30;20130;-74
2022/07/19 01:57:46;;;;;;;28.02;16.55;;;;;;;21.59;65.76;93224.38;4769966;30;20560;-74
2022/07/19 02:00:12;;;;;;;31.17;16.30;;;;;;;21.55;65.69;93226.94;4739526;30;20135;-74
2022/07/19 02:02:41;;;;;;;29.45;16.17;;;;;;;21.52;66.53;93218.84;4770202;30;20380;-74
2022/07/19 02:05:07;;;;;;;32.47;16.48;;;;;;;21.50;66.33;93229.06;4755168;30;20093;-74
2022/07/19 02:07:34;;;;;;;31.05;15.75;;;;;;;21.47;66.02;93222.50;4754199;30;20138;-74
2022/07/19 02:10:00;;;;;;;31.90;15.55;;;;;;;21.45;66.13;93227.41;4769775;30;20074;-74
2022/07/19 02:12:25;;;;;;;33.78;16.17;;;;;;;21.42;65.86;93226.19;4754080;30;20051;-75
2022/07/19 02:14:51;;;;;;;29.63;15.55;;;;;;;21.41;65.74;93224.66;4774818;30;20036;-74
2022/07/19 02:17:17;;;;;;;32.33;16.65;;;;;;;21.42;65.37;93223.53;4787664;30;20108;-74
2022/07/19 02:19:42;;;;;;;25.02;15.20;;;;;;;21.42;65.52;93225.41;4771529;30;20110;-75
2022/07/19 02:22:08;;;;;;;31.52;15.18;;;;;;;21.41;65.55;93222.00;4742153;30;20073;-74
2022/07/19 02:24:33;;;;;;;28.67;15.30;;;;;;;21.41;65.64;93215.88;4777502;30;20418;-74
2022/07/19 02:26:59;;;;;;;28.10;15.15;;;;;;;21.39;65.41;93213.53;4770629;30;20521;-75
2022/07/19 02:29:25;;;;;;;28.77;15.18;;;;;;;21.42;65.31;93222.75;4787470;30;20502;-75
2022/07/19 02:31:50;;;;;;;32.88;16.00;;;;;;;21.42;65.42;93220.09;4786681;30;20060;-74
2022/07/19 02:34:16;;;;;;;28.52;14.48;;;;;;;21.40;65.18;93217.75;4753022;30;20043;-74
2022/07/19 02:36:41;;;;;;;26.20;13.73;;;;;;;21.40;64.84;93217.75;4785181;30;20504;-74
2022/07/19 02:39:07;;;;;;;22.33;13.75;;;;;;;21.40;64.76;93223.09;4787282;30;20519;-75
2022/07/19 02:41:32;;;;;;;28.98;14.43;;;;;;;21.40;65.58;93216.97;4787370;30;20084;-74
2022/07/19 02:43:58;;;;;;;22.85;13.45;;;;;;;21.38;65.18;93219.94;4770895;30;20104;-74
2022/07/19 02:46:23;;;;;;;29.95;13.93;;;;;;;21.36;65.49;93216.84;4776793;30;20038;-74
2022/07/19 02:48:49;;;;;;;23.98;13.27;;;;;;;21.35;65.52;93217.97;4771713;30;20072;-75
2022/07/19 02:51:14;;;;;;;21.77;13.73;;;;;;;21.32;65.63;93213.31;4787768;30;20039;-74
2022/07/19 02:53:40;;;;;;;23.40;13.68;;;;;;;21.29;65.82;93216.63;4786860;30;20070;-74
2022/07/19 02:56:06;;;;;;;25.65;13.55;;;;;;;21.28;65.56;93217.75;4784034;30;20047;-74
2022/07/19 02:58:31;;;;;;;23.52;13.75;;;;;;;21.23;65.64;93212.63;4787349;30;20070;-75
2022/07/19 03:00:57;;;;;;;27.33;13.90;;;;;;;21.20;66.08;93214.09;4770852;30;20073;-74
2022/07/19 03:06:07;;;;;;;26.63;13.27;;;;;;;21.14;65.99;93219.97;4769145;30;20481;-74
2022/07/19 03:08:32;;;;;;;20.17;12.98;;;;;;;21.11;66.04;93215.31;4780394;30;20086;-75
2022/07/19 03:10:58;;;;;;;30.98;12.90;;;;;;;21.07;66.01;93212.53;4770552;30;20047;-74
2022/07/19 03:13:23;;;;;;;22.67;12.15;;;;;;;21.06;65.83;93223.53;4770611;30;20096;-74
2022/07/19 03:15:49;;;;;;;26.35;13.07;;;;;;;21.04;65.97;93220.44;4770436;30;20031;-74
2022/07/19 03:18:14;;;;;;;25.27;13.68;;;;;;;21.00;66.12;93223.75;4767493;30;20050;-75
2022/07/19 03:20:40;;;;;;;27.95;13.98;;;;;;;20.95;66.46;93218.66;4758630;30;20483;-75
2022/07/19 03:23:05;;;;;;;23.38;12.85;;;;;;;20.89;66.38;93222.63;4786715;30;20055;-74
2022/07/19 03:25:31;;;;;;;26.58;13.23;;;;;;;20.84;66.79;93227.41;4770472;30;20137;-74
2022/07/19 03:27:59;;;;;;;27.20;13.35;;;;;;;20.80;66.70;93227.28;4789081;29;20062;-75
2022/07/19 03:30:25;;;;;;;29.88;13.77;;;;;;;20.76;66.99;93226.41;4756940;30;20043;-74
2022/07/19 03:32:51;;;;;;;23.15;12.93;;;;;;;20.73;67.01;93227.06;4786278;30;20047;-74
2022/07/19 03:35:16;;;;;;;22.95;13.93;;;;;;;20.70;67.58;93230.41;4786285;30;20097;-74
2022/07/19 03:37:42;;;;;;;24.73;13.07;;;;;;;20.70;67.43;93222.41;4770216;30;20043;-74
2022/07/19 03:40:08;;;;;;;24.70;13.82;;;;;;;20.67;67.52;93228.38;4764432;30;20533;-74
2022/07/19 03:42:34;;;;;;;31.60;15.10;;;;;;;20.65;67.93;93230.59;4786356;30;20048;-75
2022/07/19 03:44:59;;;;;;;22.95;14.05;;;;;;;20.58;68.39;93231.94;4784908;30;20088;-74
2022/07/19 03:47:25;;;;;;;29.08;14.98;;;;;;;20.59;68.07;93232.72;4797341;29;20406;-74
2022/07/19 03:49:50;;;;;;;23.75;13.93;;;;;;;20.58;68.34;93231.16;4799340;29;20095;-74
2022/07/19 03:52:16;;;;;;;25.15;14.23;;;;;;;20.58;68.23;93231.16;4773204;29;20050;-75
2022/07/19 03:54:42;;;;;;;20.70;13.65;;;;;;;20.56;67.98;93236.81;4787796;29;20047;-75
2022/07/19 03:57:07;;;;;;;23.88;13.98;;;;;;;20.55;67.90;93237.09;4786005;29;20490;-74
2022/07/19 03:59:33;;;;;;;36.38;13.73;;;;;;;20.56;67.94;93236.81;4803293;29;20051;-74
2022/07/19 04:01:58;;;;;;;21.10;13.18;;;;;;;20.56;67.82;93242.13;4786484;29;20050;-75
2022/07/19 04:04:24;;;;;;;24.20;12.90;;;;;;;20.54;68.08;93241.66;4785925;30;20043;-75
2022/07/19 04:06:49;;;;;;;20.77;12.60;;;;;;;20.54;67.89;93241.66;4773089;29;20053;-74
2022/07/19 04:09:15;;;;;;;29.67;12.45;;;;;;;20.53;67.71;93242.72;4787754;29;20499;-75
2022/07/19 04:11:41;;;;;;;25.40;12.20;;;;;;;20.55;67.67;93237.09;4786477;29;20035;-74
2022/07/19 04:14:06;;;;;;;19.40;11.38;;;;;;;20.56;67.67;93243.97;4803658;29;20046;-74
2022/07/19 04:16:32;;;;;;;21.30;11.70;;;;;;;20.58;67.30;93241.81;4772550;29;20498;-74
2022/07/19 04:18:58;;;;;;;25.50;10.98;;;;;;;20.61;67.32;93248.34;4775104;29;20088;-74
2022/07/19 04:21:23;;;;;;;18.73;10.50;;;;;;;20.65;67.23;93246.56;4795729;29;20059;-74
2022/07/19 04:23:49;;;;;;;24.58;10.95;;;;;;;20.68;67.53;93257.31;4768853;30;20046;-75
2022/07/19 04:26:14;;;;;;;25.17;11.45;;;;;;;20.70;67.38;93249.78;4785721;30;20031;-74
2022/07/19 04:28:40;;;;;;;19.70;11.13;;;;;;;20.73;67.33;93254.44;4770632;30;20046;-74
2022/07/19 04:31:06;;;;;;;21.05;10.88;;;;;;;20.76;67.49;93253.78;4784886;29;20054;-74
2022/07/19 04:33:31;;;;;;;22.48;11.10;;;;;;;20.78;67.56;93251.59;4774270;29;20042;-74
2022/07/19 04:35:57;;;;;;;17.00;11.05;;;;;;;20.81;67.45;93255.47;4786955;29;20085;-75
2022/07/19 04:38:23;;;;;;;17.88;11.32;;;;;;;20.84;67.44;93257.44;4801953;29;20351;-75
2022/07/19 04:40:49;;;;;;;17.65;10.68;;;;;;;20.85;67.51;93256.38;4787048;29;20042;-74
2022/07/19 04:43:16;;;;;;;18.63;10.57;;;;;;;20.87;67.21;93251.47;4801350;29;20547;-74
2022/07/19 04:45:44;;;;;;;21.95;12.77;;;;;;;20.88;67.63;93253.03;4780293;29;20057;-74
2022/07/19 04:48:10;;;;;;;21.17;10.75;;;;;;;20.89;67.71;93259.13;4784895;29;20437;-74
2022/07/19 04:50:36;;;;;;;21.05;10.82;;;;;;;20.91;67.74;93255.00;4801420;29;20053;-74
2022/07/19 04:53:02;;;;;;;22.77;11.02;;;;;;;20.92;68.42;93251.25;4778654;29;20366;-77
2022/07/19 04:55:27;;;;;;;19.52;10.20;;;;;;;20.94;68.29;93254.38;4777540;29;20138;-78
2022/07/19 04:57:53;;;;;;;22.50;10.95;;;;;;;20.97;67.96;93264.34;4772520;29;20058;-80
2022/07/19 05:00:19;;;;;;;27.08;12.65;;;;;;;21.00;68.21;93257.56;4776556;29;20039;-79
2022/07/19 05:02:44;;;;;;;22.23;11.63;;;;;;;21.02;68.26;93259.91;4783727;29;20043;-80
2022/07/19 05:05:11;;;;;;;28.20;10.57;;;;;;;21.05;68.17;93259.22;4773955;29;20042;-79
2022/07/19 05:07:36;;;;;;;19.30;10.80;;;;;;;21.08;68.27;93258.59;4772930;30;20149;-79
2022/07/19 05:10:03;;;;;;;21.77;11.05;;;;;;;21.10;68.60;93254.47;4776019;29;20117;-78
2022/07/19 05:12:29;;;;;;;20.50;11.35;;;;;;;21.12;68.57;93259.44;4789805;29;20510;-79
2022/07/19 05:14:55;;;;;;;33.70;11.10;;;;;;;21.17;68.38;93254.69;4779178;30;20047;-79
2022/07/19 05:17:21;;;;;;;48.72;12.68;;;;;;;21.23;68.27;93259.78;4802387;29;20127;-78
2022/07/19 05:19:46;;;;;;;25.65;12.13;;;;;;;21.24;68.51;93256.81;4806526;29;20042;-78
2022/07/19 05:22:12;;;;;;;26.77;12.23;;;;;;;21.29;68.25;93253.13;4778367;29;20130;-79
2022/07/19 05:24:38;;;;;;;24.83;12.98;;;;;;;21.34;68.57;93258.22;4758772;30;20186;-79
2022/07/19 05:27:03;;;;;;;25.92;12.23;;;;;;;21.37;68.50;93255.69;4754249;30;20402;-78
2022/07/19 05:29:29;;;;;;;20.85;11.80;;;;;;;21.44;68.71;93254.38;4770896;30;20048;-78
2022/07/19 05:31:54;;;;;;;22.35;12.07;;;;;;;21.48;68.65;93261.38;4773535;30;20035;-78
2022/07/19 05:34:20;;;;;;;19.50;11.98;;;;;;;21.55;68.75;93256.25;4786438;30;20051;-79
2022/07/19 05:36:46;;;;;;;28.63;13.13;;;;;;;21.59;68.52;93256.34;4758059;30;20047;-78
2022/07/19 05:39:11;;;;;;;26.85;12.75;;;;;;;21.63;68.62;93267.88;4787895;30;20039;-78
2022/07/19 05:41:37;;;;;;;21.08;12.75;;;;;;;21.66;68.10;93261.91;4787120;30;20040;-78
2022/07/19 05:44:03;;;;;;;22.25;12.75;;;;;;;21.71;67.78;93266.97;4782926;30;20063;-78
2022/07/19 05:46:28;;;;;;;28.55;13.60;;;;;;;21.76;67.68;93260.66;4755826;30;20070;-78
2022/07/19 05:48:54;;;;;;;29.05;12.90;;;;;;;21.80;68.01;93267.63;4792805;29;20499;-78
2022/07/19 05:51:20;;;;;;;32.88;12.88;;;;;;;21.91;68.77;93264.47;4775631;29;20043;-78
2022/07/19 05:53:45;;;;;;;31.13;13.57;;;;;;;21.95;68.60;93266.16;4776645;30;20046;-78
2022/07/19 05:56:11;;;;;;;25.55;12.95;;;;;;;22.01;68.37;93264.78;4775227;30;20131;-79
2022/07/19 05:58:37;;;;;;;19.00;12.77;;;;;;;22.04;68.51;93268.66;4761935;30;20058;-78
2022/07/19 06:01:19;;;;;;;26.88;13.63;;;;;;;22.11;67.85;93260.88;4755245;30;20395;-78
2022/07/19 06:03:52;;;;;;;;;;;;;;;22.22;67.26;93269.97;4790256;29;20077;-78
2022/07/19 06:06:19;;;;;;;32.47;13.57;;;;;;;22.34;66.77;93271.81;4793245;29;20032;-77
2022/07/19 06:08:46;;;;;;;23.63;14.00;;;;;;;22.47;66.75;93277.84;4788188;29;20087;-78
2022/07/19 06:11:13;;;;;;;25.38;13.00;;;;;;;22.60;67.48;93271.31;4785922;30;20506;-78
2022/07/19 06:13:39;;;;;;;30.05;13.77;;;;;;;22.76;66.53;93274.00;4773020;30;20051;-78
2022/07/19 06:16:05;;;;;;;28.80;14.75;;;;;;;22.95;65.39;93270.69;4774251;30;20035;-78
2022/07/19 06:18:34;;;;;;;24.00;14.02;;;;;;;23.14;64.96;93277.25;4756662;30;20047;-78
2022/07/19 06:21:06;;;;;;;34.15;14.15;;;;;;;23.33;64.30;93280.00;4757359;30;20460;-74
2022/07/19 06:23:32;;;;;;;25.92;13.45;;;;;;;23.57;64.24;93278.22;4786863;29;20043;-75
2022/07/19 06:25:58;;;;;;;29.23;13.98;;;;;;;24.15;62.01;93264.19;4771291;30;20563;-75
2022/07/19 06:28:24;;;;;;;34.00;14.20;;;;;;;24.43;60.39;93269.31;4773443;30;20043;-75
2022/07/19 06:30:50;;;;;;;28.55;13.90;;;;;;;24.59;56.82;93271.91;4771461;30;20047;-75
2022/07/19 06:33:15;;;;;;;29.25;15.73;;;;;;;24.77;58.38;93267.66;4771304;30;20518;-75
2022/07/19 06:35:41;;;;;;;40.53;17.00;;;;;;;25.31;55.87;93272.03;4787779;30;20051;-75
2022/07/19 06:38:07;;;;;;;35.17;17.27;;;;;;;25.32;56.07;93264.75;4787135;29;20043;-75
2022/07/19 06:40:32;;;;;;;29.65;17.27;;;;;;;25.44;53.56;93267.22;4773703;29;20035;-75
2022/07/19 06:42:58;;;;;;;32.90;16.50;;;;;;;25.34;54.77;93267.84;4789070;29;20429;-74
2022/07/19 06:45:24;;;;;;;31.20;17.42;;;;;;;25.18;55.59;93273.31;4789102;29;20039;-75
2022/07/19 06:47:51;;;;;;;31.17;18.25;;;;;;;25.27;56.18;93263.16;4789112;29;20090;-75
2022/07/19 06:50:18;;;;;;;39.75;17.67;;;;;;;25.42;56.97;93266.03;4803598;29;20047;-75
2022/07/19 06:52:43;;;;;;;36.88;18.50;;;;;;;25.48;55.45;93262.69;4805302;29;20039;-75
2022/07/19 06:55:09;;;;;;;38.03;18.63;;;;;;;25.57;56.20;93262.44;4788803;29;20035;-75
2022/07/19 06:57:35;;;;;;;33.00;20.20;;;;;;;25.50;56.78;93271.16;4774136;29;20137;-75
2022/07/19 07:00:01;;;;;;;38.42;19.17;;;;;;;25.41;55.96;93267.19;4788715;29;20843;-75
2022/07/19 07:02:26;;;;;;;33.67;18.13;;;;;;;25.55;55.71;93268.16;4787340;29;20033;-75
2022/07/19 07:04:52;;;;;;;34.53;19.83;;;;;;;25.79;53.86;93265.44;4788908;29;20490;-75
2022/07/19 07:07:17;;;;;;;39.40;19.48;;;;;;;25.90;54.92;93261.78;4804799;29;20047;-75
2022/07/19 07:09:43;;;;;;;33.75;18.77;;;;;;;25.91;52.69;93263.31;4805026;29;20121;-75
2022/07/19 07:12:08;;;;;;;43.80;19.23;;;;;;;26.23;52.56;93257.59;4794690;29;20054;-76
2022/07/19 07:14:35;;;;;;;45.58;18.17;;;;;;;26.29;52.24;93264.16;4786845;30;20058;-75
2022/07/19 07:17:01;;;;;;;31.63;16.95;;;;;;;26.23;51.38;93265.63;4786930;30;20520;-75
2022/07/19 07:19:26;;;;;;;44.00;18.75;;;;;;;26.49;52.23;93258.63;4786802;30;20118;-75
2022/07/19 07:21:52;;;;;;;36.22;19.42;;;;;;;26.46;51.92;93260.13;4786483;29;20594;-75
2022/07/19 07:24:18;;;;;;;46.20;20.40;;;;;;;26.47;52.47;93260.91;4787218;29;20050;-75
2022/07/19 07:26:43;;;;;;;50.25;20.98;;;;;;;26.46;53.06;93262.81;4773440;29;20418;-75
2022/07/19 07:29:09;;;;;;;40.92;18.92;;;;;;;26.72;53.15;93266.53;4804550;29;20062;-75
2022/07/19 07:31:36;;;;;;;48.78;20.75;;;;;;;26.85;53.20;93272.44;4805025;29;20023;-75
2022/07/19 07:34:02;;;;;;;38.90;20.70;;;;;;;26.88;51.74;93269.75;4786988;29;20074;-75
2022/07/19 07:36:28;;;;;;;35.28;20.27;;;;;;;26.82;52.80;93267.78;4804487;29;20453;-75
2022/07/19 07:38:54;;;;;;;40.35;20.63;;;;;;;26.37;54.93;93268.47;4773329;29;20045;-75
2022/07/19 07:41:19;;;;;;;40.63;20.90;;;;;;;26.42;54.98;93270.06;4804198;29;20058;-75
2022/07/19 07:43:45;;;;;;;43.67;18.70;;;;;;;26.88;52.63;93275.13;4802424;29;20045;-75
2022/07/19 07:46:10;;;;;;;45.30;21.75;;;;;;;26.82;52.92;93273.16;4787950;29;20091;-75
2022/07/19 07:48:36;;;;;;;50.78;22.10;;;;;;;26.42;54.48;93266.59;4788084;29;20042;-75
2022/07/19 07:51:02;;;;;;;46.58;23.05;;;;;;;25.91;56.20;93268.66;4804219;29;20066;-75
2022/07/19 07:53:27;;;;;;;48.47;22.73;;;;;;;25.90;56.10;93263.69;4804217;29;20131;-75
2022/07/19 07:55:53;;;;;;;41.00;22.67;;;;;;;26.16;56.80;93268.22;4772394;30;20417;-75
2022/07/19 07:58:18;;;;;;;61.80;23.95;;;;;;;26.09;56.62;93262.75;4755078;30;20118;-75
2022/07/19 08:00:44;;;;;;;51.15;23.73;;;;;;;26.08;57.20;93267.34;4786581;30;20051;-75
2022/07/19 08:03:09;;;;;;;37.78;18.20;;;;;;;26.18;51.70;93263.25;4785757;30;20503;-75
2022/07/19 08:05:35;;;;;;;30.90;15.90;;;;;;;26.40;51.00;93258.13;4762154;29;20054;-76
2022/07/19 08:08:01;;;;;;;37.72;19.58;;;;;;;27.06;53.08;93258.41;4787762;29;20058;-75
2022/07/19 08:10:32;;;;;;;34.95;20.42;;;;;;;27.13;52.66;93261.16;4803755;29;20392;-75
2022/07/19 08:12:57;;;;;;;36.53;16.63;;;;;;;27.08;50.16;93261.50;4803897;29;20099;-75
2022/07/19 08:15:23;;;;;;;28.73;14.43;;;;;;;27.27;47.36;93252.47;4802119;29;20042;-75
2022/07/19 08:17:49;;;;;;;25.20;13.95;;;;;;;27.46;46.08;93254.16;4803958;29;20379;-75
2022/07/19 08:20:14;;;;;;;28.55;15.02;;;;;;;27.60;47.34;93254.22;4772621;29;20039;-75
2022/07/19 08:22:41;;;;;;;34.45;14.48;;;;;;;27.77;46.69;93255.50;4772563;29;20063;-75
2022/07/19 08:25:07;;;;;;;28.48;14.57;;;;;;;27.94;45.40;93257.50;4769244;30;20080;-75
2022/07/19 08:27:33;;;;;;;26.65;16.73;;;;;;;28.12;46.42;93251.44;4784790;30;20051;-75
2022/07/19 08:29:59;;;;;;;31.08;16.17;;;;;;;28.33;44.93;93258.84;4769661;30;20047;-75
2022/07/19 08:32:25;;;;;;;32.60;15.52;;;;;;;27.46;46.66;93254.16;4785010;29;20043;-75
2022/07/19 08:34:50;;;;;;;34.92;18.52;;;;;;;27.29;49.90;93259.03;4785587;30;20119;-75
2022/07/19 08:37:16;;;;;;;26.73;15.27;;;;;;;27.17;47.07;93253.91;4767643;30;20283;-75
2022/07/19 08:39:42;;;;;;;26.85;12.20;;;;;;;27.46;44.76;93260.28;4785469;30;20058;-75
2022/07/19 08:42:09;;;;;;;23.55;14.43;;;;;;;27.20;45.38;93255.84;4769382;30;20051;-75
2022/07/19 08:44:38;;;;;;;26.45;14.23;;;;;;;27.25;46.82;93260.16;4785590;30;20694;-75
2022/07/19 08:47:05;;;;;;;26.63;13.55;;;;;;;27.64;46.38;93252.34;4784348;30;20065;-75
2022/07/19 08:49:31;;;;;;;27.80;14.70;;;;;;;28.09;46.10;93257.59;4769309;30;20047;-75
2022/07/19 08:51:57;;;;;;;31.70;13.85;;;;;;;28.27;44.46;93247.66;4769312;30;20064;-75
2022/07/19 08:54:24;;;;;;;27.60;13.90;;;;;;;28.19;42.09;93254.97;4769109;30;20043;-75
2022/07/19 08:59:35;;;;;;;28.08;14.35;;;;;;;28.21;42.18;93247.28;4771720;30;20410;-75
2022/07/19 09:02:00;;;;;;;26.35;14.27;;;;;;;28.50;43.71;93250.06;4769517;30;20047;-76
2022/07/19 09:04:30;;;;;;;46.70;14.43;;;;;;;28.78;42.63;93251.31;4769010;30;20174;-75
2022/07/19 09:06:57;;;;;;;28.13;14.30;;;;;;;28.77;42.47;93252.44;4769267;30;20047;-75
2022/07/19 09:09:27;;;;;;;29.60;14.35;;;;;;;28.98;40.99;93246.31;4778595;30;20028;-75
2022/07/19 09:11:56;;;;;;;31.83;14.93;;;;;;;28.48;44.63;93248.91;4767189;30;20039;-75
2022/07/19 09:14:30;;;;;;;28.45;15.00;;;;;;;28.77;42.90;93247.81;4783993;30;20028;-75
2022/07/19 09:17:16;;;;;;;32.33;15.18;;;;;;;28.78;43.00;93243.22;4768991;30;20039;-75
2022/07/19 09:19:44;;;;;;;22.85;13.95;;;;;;;28.79;42.05;93237.44;4784014;30;20554;-75
2022/07/19 09:22:15;;;;;;;29.77;14.50;;;;;;;28.67;43.06;93234.34;4768910;30;20056;-75
2022/07/19 09:24:45;;;;;;;28.50;14.38;;;;;;;28.83;42.08;93246.28;4785103;30;20047;-75
2022/07/19 09:27:13;;;;;;;25.35;14.50;;;;;;;29.01;41.42;93242.84;4769517;30;20047;-75
2022/07/19 09:29:42;;;;;;;22.60;13.88;;;;;;;29.35;41.64;93245.19;4784235;30;20031;-75
2022/07/19 09:32:10;;;;;;;35.45;14.82;;;;;;;29.48;40.19;93241.72;4773529;30;20122;-76
2022/07/19 09:34:43;;;;;;;30.25;15.65;;;;;;;29.00;41.23;93239.41;4767248;30;20042;-76
2022/07/19 09:37:19;;;;;;;24.38;14.80;;;;;;;28.96;41.09;93238.63;4769799;30;20458;-76
2022/07/19 09:39:51;;;;;;;24.48;14.20;;;;;;;29.07;41.39;93244.03;4751247;30;20468;-76
2022/07/19 09:42:21;;;;;;;28.38;15.05;;;;;;;29.19;41.19;93240.97;4773761;30;20118;-76
2022/07/19 09:44:57;;;;;;;30.45;15.00;;;;;;;29.30;41.56;93229.41;4798586;29;20035;-76
2022/07/19 09:47:34;;;;;;;23.55;13.70;;;;;;;29.20;41.16;93231.69;4775752;30;20521;-76
2022/07/19 09:50:02;;;;;;;25.38;14.88;;;;;;;29.31;41.60;93225.56;4754662;30;20044;-76
2022/07/19 09:52:29;;;;;;;27.88;13.75;;;;;;;29.30;41.58;93224.78;4760296;29;20076;-75
2022/07/19 09:54:55;;;;;;;26.98;14.77;;;;;;;28.78;41.59;93227.06;4791646;29;20059;-75
2022/07/19 09:57:23;;;;;;;23.92;13.38;;;;;;;28.71;42.88;93229.72;4788011;30;20047;-75
2022/07/19 09:59:51;;;;;;;25.17;13.45;;;;;;;28.60;43.18;93227.03;4789248;30;20043;-76
2022/07/19 10:02:19;;;;;;;29.08;13.90;;;;;;;28.99;43.23;93227.06;4784856;30;20031;-75
2022/07/19 10:04:44;;;;;;;29.48;13.95;;;;;;;29.23;41.26;93225.56;4770799;30;20051;-76
2022/07/19 10:07:12;;;;;;;24.05;14.00;;;;;;;29.40;41.18;93220.53;4753667;30;20043;-75
2022/07/19 10:09:39;;;;;;;27.48;14.30;;;;;;;29.60;40.93;93227.03;4777940;30;20027;-76
2022/07/19 10:12:05;;;;;;;23.83;13.70;;;;;;;29.54;41.27;93223.19;4744175;30;20048;-76
2022/07/19 10:14:32;;;;;;;29.63;15.02;;;;;;;29.70;41.27;93224.75;4753951;30;20039;-76
2022/07/19 10:17:30;;;;;;;22.88;14.25;;;;;;;30.07;41.00;93216.91;4772087;30;20032;-76
2022/07/19 10:19:56;;;;;;;27.08;14.18;;;;;;;30.12;40.44;93217.69;4787924;30;20043;-76
2022/07/19 10:22:24;;;;;;;25.00;14.05;;;;;;;29.90;40.94;93215.03;4787746;29;20362;-76
2022/07/19 10:24:58;;;;;;;24.58;15.27;;;;;;;29.63;40.23;93218.19;4796653;29;20050;-76
2022/07/19 10:27:24;;;;;;;23.52;13.95;;;;;;;29.70;41.08;93224.75;4773443;29;20031;-76
2022/07/19 10:30:12;;;;;;;29.88;15.55;;;;;;;29.62;41.22;93216.63;4793593;29;20038;-76
2022/07/19 10:32:44;;;;;;;24.20;15.95;;;;;;;29.40;40.43;93210.50;4756548;29;20039;-76
2022/07/19 10:35:28;;;;;;;29.63;14.65;;;;;;;29.14;42.34;93206.31;4784810;29;20454;-76
2022/07/19 10:37:55;;;;;;;23.38;14.25;;;;;;;29.25;41.82;93207.06;4803013;29;20047;-76
2022/07/19 10:40:40;;;;;;;25.70;13.75;;;;;;;29.11;42.90;93209.00;4800823;29;20466;-76
2022/07/19 10:43:11;;;;;;;24.27;14.77;;;;;;;28.93;42.04;93195.50;4805515;29;20502;-76
2022/07/19 10:45:42;;;;;;;24.52;15.82;;;;;;;28.85;42.42;93192.03;4799200;29;20047;-76
2022/07/19 10:48:11;;;;;;;20.92;13.68;;;;;;;28.40;43.54;93202.34;4787547;30;20406;-76
2022/07/19 10:50:48;;;;;;;24.38;15.77;;;;;;;28.91;43.40;93205.88;4772130;30;20032;-76
2022/07/19 10:53:41;;;;;;;18.38;12.15;;;;;;;29.08;42.11;93197.06;4790926;29;20047;-76
2022/07/19 10:56:20;;;;;;;23.85;14.57;;;;;;;28.70;42.81;93193.94;4783393;29;20053;-76
2022/07/19 10:59:00;;;;;;;28.65;16.08;;;;;;;28.52;42.93;93187.75;4794322;29;20039;-76
2022/07/19 11:01:29;;;;;;;25.65;16.08;;;;;;;28.09;43.85;93193.78;4823057;29;20073;-76
2022/07/19 11:04:22;;;;;;;26.35;15.98;;;;;;;28.13;45.37;93191.88;4806233;29;20403;-76
2022/07/19 11:06:47;;;;;;;25.98;16.58;;;;;;;27.83;44.16;93186.72;4783933;29;20058;-76
2022/07/19 11:09:13;;;;;;;35.95;17.70;;;;;;;27.54;44.99;93189.28;4802049;29;20038;-76
2022/07/19 11:11:39;;;;;;;31.50;16.20;;;;;;;27.87;45.23;93179.47;4774333;30;20084;-76
2022/07/19 11:14:04;;;;;;;25.60;15.57;;;;;;;28.21;45.50;93168.44;4755906;30;20043;-76
2022/07/19 11:16:30;;;;;;;25.60;15.45;;;;;;;28.51;44.65;93180.84;4771496;30;20130;-76
2022/07/19 11:19:08;;;;;;;36.10;16.15;;;;;;;28.64;44.77;93169.31;4786931;30;20123;-76
2022/07/19 11:21:36;;;;;;;27.83;15.25;;;;;;;28.51;44.04;93160.06;4771975;30;20593;-76